sensor_id;sensor_type;location;lat;lon;timestamp;pressure;altitude;pressure_sealevel;temperature
74750;BMP280;63269;53.330;-6.288;2023-06-24T00:00:25;101631.81;;;25.19
74750;BMP280;63269;53.330;-6.288;2023-06-24T00:02:50;101626.13;;;25.16
74750;BMP280;63269;53.330;-6.288;2023-06-24T00:05:18;101626.13;;;25.16
74750;BMP280;63269;53.330;-6.288;2023-06-24T00:07:44;101631.94;;;25.15
74750;BMP280;63269;53.330;-6.288;2023-06-24T00:10:15;101636.13;;;25.16
74750;BMP280;63269;53.330;-6.288;2023-06-24T00:12:41;101634.63;;;25.15
74750;BMP280;63269;53.330;-6.288;2023-06-24T00:15:07;101634.63;;;25.15
74750;BMP280;63269;53.330;-6.288;2023-06-24T00:17:36;101641.63;;;25.12
74750;BMP280;63269;53.330;-6.288;2023-06-24T00:20:01;101641.63;;;25.12
74750;BMP280;63269;53.330;-6.288;2023-06-24T00:22:32;101645.53;;;25.11
74750;BMP280;63269;53.330;-6.288;2023-06-24T00:24:57;101647.00;;;25.12
74750;BMP280;63269;53.330;-6.288;2023-06-24T00:27:24;101657.00;;;25.12
74750;BMP280;63269;53.330;-6.288;2023-06-24T00:29:50;101654.75;;;25.10
74750;BMP280;63269;53.330;-6.288;2023-06-24T00:32:17;101654.75;;;25.10
74750;BMP280;63269;53.330;-6.288;2023-06-24T00:34:43;101658.63;;;25.09
74750;BMP280;63269;53.330;-6.288;2023-06-24T00:37:11;101663.53;;;25.11
74750;BMP280;63269;53.330;-6.288;2023-06-24T00:39:37;101659.81;;;25.08
74750;BMP280;63269;53.330;-6.288;2023-06-24T00:42:02;101659.81;;;25.08
74750;BMP280;63269;53.330;-6.288;2023-06-24T00:44:28;101661.75;;;25.08
74750;BMP280;63269;53.330;-6.288;2023-06-24T00:46:54;101661.75;;;25.08
74750;BMP280;63269;53.330;-6.288;2023-06-24T00:49:19;101656.09;;;25.06
74750;BMP280;63269;53.330;-6.288;2023-06-24T00:51:46;101659.19;;;25.04
74750;BMP280;63269;53.330;-6.288;2023-06-24T00:54:18;101654.88;;;25.07
74750;BMP280;63269;53.330;-6.288;2023-06-24T00:56:45;101654.88;;;25.07
74750;BMP280;63269;53.330;-6.288;2023-06-24T00:59:13;101654.88;;;25.07
74750;BMP280;63269;53.330;-6.288;2023-06-24T01:01:43;101658.78;;;25.06
74750;BMP280;63269;53.330;-6.288;2023-06-24T01:04:10;101668.00;;;25.05
74750;BMP280;63269;53.330;-6.288;2023-06-24T01:06:36;101663.38;;;25.05
74750;BMP280;63269;53.330;-6.288;2023-06-24T01:09:02;101672.22;;;25.06
74750;BMP280;63269;53.330;-6.288;2023-06-24T01:11:31;101671.88;;;25.04
74750;BMP280;63269;53.330;-6.288;2023-06-24T01:13:59;101671.88;;;25.04
74750;BMP280;63269;53.330;-6.288;2023-06-24T01:22:08;101662.34;;;25.03
74750;BMP280;63269;53.330;-6.288;2023-06-24T01:33:46;101664.72;;;25.01
74750;BMP280;63269;53.330;-6.288;2023-06-24T01:36:16;101666.22;;;25.02
74750;BMP280;63269;53.330;-6.288;2023-06-24T01:38:52;101658.16;;;25.02
74750;BMP280;63269;53.330;-6.288;2023-06-24T01:41:23;101658.16;;;25.02
74750;BMP280;63269;53.330;-6.288;2023-06-24T01:43:53;101656.66;;;25.01
74750;BMP280;63269;53.330;-6.288;2023-06-24T01:46:24;101656.66;;;25.01
74750;BMP280;63269;53.330;-6.288;2023-06-24T01:48:54;101662.03;;;25.01
74750;BMP280;63269;53.330;-6.288;2023-06-24T01:51:24;101656.66;;;25.01
74750;BMP280;63269;53.330;-6.288;2023-06-24T01:53:53;101650.13;;;25.02
74750;BMP280;63269;53.330;-6.288;2023-06-24T01:56:21;101649.78;;;25.00
74750;BMP280;63269;53.330;-6.288;2023-06-24T01:58:50;101649.78;;;25.00
74750;BMP280;63269;53.330;-6.288;2023-06-24T02:01:17;101652.91;;;24.98
74750;BMP280;63269;53.330;-6.288;2023-06-24T02:03:43;101651.75;;;24.99
74750;BMP280;63269;53.330;-6.288;2023-06-24T02:06:09;101651.75;;;24.99
74750;BMP280;63269;53.330;-6.288;2023-06-24T02:08:39;101639.03;;;25.00
74750;BMP280;63269;53.330;-6.288;2023-06-24T02:11:06;101650.53;;;25.00
74750;BMP280;63269;53.330;-6.288;2023-06-24T02:13:33;101650.53;;;25.00
74750;BMP280;63269;53.330;-6.288;2023-06-24T02:16:01;101638.31;;;24.99
74750;BMP280;63269;53.330;-6.288;2023-06-24T02:18:31;101638.31;;;24.99
74750;BMP280;63269;53.330;-6.288;2023-06-24T02:20:59;101647.09;;;25.00
74750;BMP280;63269;53.330;-6.288;2023-06-24T02:23:25;101647.09;;;25.00
74750;BMP280;63269;53.330;-6.288;2023-06-24T02:25:52;101648.28;;;24.99
74750;BMP280;63269;53.330;-6.288;2023-06-24T02:28:20;101646.03;;;24.97
74750;BMP280;63269;53.330;-6.288;2023-06-24T02:30:47;101646.81;;;24.98
74750;BMP280;63269;53.330;-6.288;2023-06-24T02:33:13;101647.56;;;24.98
74750;BMP280;63269;53.330;-6.288;2023-06-24T02:35:39;101642.19;;;24.98
74750;BMP280;63269;53.330;-6.288;2023-06-24T02:38:07;101640.66;;;24.97
74750;BMP280;63269;53.330;-6.288;2023-06-24T02:40:35;101640.66;;;24.97
74750;BMP280;63269;53.330;-6.288;2023-06-24T02:43:01;101636.06;;;24.98
74750;BMP280;63269;53.330;-6.288;2023-06-24T02:45:27;101636.06;;;24.98
74750;BMP280;63269;53.330;-6.288;2023-06-24T02:47:53;101639.19;;;24.96
74750;BMP280;63269;53.330;-6.288;2023-06-24T02:50:19;101631.13;;;24.96
74750;BMP280;63269;53.330;-6.288;2023-06-24T02:52:45;101639.19;;;24.96
74750;BMP280;63269;53.330;-6.288;2023-06-24T02:55:11;101631.88;;;24.96
74750;BMP280;63269;53.330;-6.288;2023-06-24T02:57:37;101631.13;;;24.96
74750;BMP280;63269;53.330;-6.288;2023-06-24T03:00:04;101631.13;;;24.96
74750;BMP280;63269;53.330;-6.288;2023-06-24T03:02:41;101628.44;;;24.96
74750;BMP280;63269;53.330;-6.288;2023-06-24T03:05:09;101625.03;;;24.95
74750;BMP280;63269;53.330;-6.288;2023-06-24T03:07:36;101625.03;;;24.95
74750;BMP280;63269;53.330;-6.288;2023-06-24T03:10:03;101632.63;;;24.97
74750;BMP280;63269;53.330;-6.288;2023-06-24T03:12:32;101632.63;;;24.97
74750;BMP280;63269;53.330;-6.288;2023-06-24T03:14:57;101636.97;;;24.94
74750;BMP280;63269;53.330;-6.288;2023-06-24T03:17:23;101640.41;;;24.95
74750;BMP280;63269;53.330;-6.288;2023-06-24T03:19:50;101639.66;;;24.94
74750;BMP280;63269;53.330;-6.288;2023-06-24T03:22:15;101639.66;;;24.94
74750;BMP280;63269;53.330;-6.288;2023-06-24T03:24:42;101640.06;;;24.93
74750;BMP280;63269;53.330;-6.288;2023-06-24T03:27:08;101641.56;;;24.94
74750;BMP280;63269;53.330;-6.288;2023-06-24T03:29:33;101649.63;;;24.94
74750;BMP280;63269;53.330;-6.288;2023-06-24T03:31:59;101649.63;;;24.94
74750;BMP280;63269;53.330;-6.288;2023-06-24T03:34:27;101636.97;;;24.94
74750;BMP280;63269;53.330;-6.288;2023-06-24T03:36:53;101635.91;;;24.92
74750;BMP280;63269;53.330;-6.288;2023-06-24T03:39:22;101635.91;;;24.92
74750;BMP280;63269;53.330;-6.288;2023-06-24T03:41:47;101628.13;;;24.94
74750;BMP280;63269;53.330;-6.288;2023-06-24T03:44:13;101639.31;;;24.92
74750;BMP280;63269;53.330;-6.288;2023-06-24T03:46:38;101639.31;;;24.92
74750;BMP280;63269;53.330;-6.288;2023-06-24T03:49:04;101654.25;;;24.93
74750;BMP280;63269;53.330;-6.288;2023-06-24T03:51:30;101651.56;;;24.93
74750;BMP280;63269;53.330;-6.288;2023-06-24T03:53:56;101654.25;;;24.93
74750;BMP280;63269;53.330;-6.288;2023-06-24T03:56:21;101658.84;;;24.93
74750;BMP280;63269;53.330;-6.288;2023-06-24T03:58:47;101658.84;;;24.93
74750;BMP280;63269;53.330;-6.288;2023-06-24T04:01:12;101654.25;;;24.93
74750;BMP280;63269;53.330;-6.288;2023-06-24T04:03:38;101658.84;;;24.93
74750;BMP280;63269;53.330;-6.288;2023-06-24T04:06:03;101658.09;;;24.92
74750;BMP280;63269;53.330;-6.288;2023-06-24T04:08:29;101658.84;;;24.93
74750;BMP280;63269;53.330;-6.288;2023-06-24T04:10:55;101660.78;;;24.92
74750;BMP280;63269;53.330;-6.288;2023-06-24T04:13:21;101660.78;;;24.92
74750;BMP280;63269;53.330;-6.288;2023-06-24T04:15:46;101652.72;;;24.92
74750;BMP280;63269;53.330;-6.288;2023-06-24T04:18:12;101653.94;;;24.91
74750;BMP280;63269;53.330;-6.288;2023-06-24T04:20:37;101644.69;;;24.92
74750;BMP280;63269;53.330;-6.288;2023-06-24T04:23:03;101644.69;;;24.92
74750;BMP280;63269;53.330;-6.288;2023-06-24T04:25:29;101657.38;;;24.92
74750;BMP280;63269;53.330;-6.288;2023-06-24T04:27:55;101662.75;;;24.92
74750;BMP280;63269;53.330;-6.288;2023-06-24T04:30:20;101659.31;;;24.91
74750;BMP280;63269;53.330;-6.288;2023-06-24T04:32:46;101659.31;;;24.91
74750;BMP280;63269;53.330;-6.288;2023-06-24T04:35:11;101668.41;;;24.94
74750;BMP280;63269;53.330;-6.288;2023-06-24T04:37:37;101655.41;;;24.92
74750;BMP280;63269;53.330;-6.288;2023-06-24T04:40:02;101660.06;;;24.92
74750;BMP280;63269;53.330;-6.288;2023-06-24T04:42:29;101660.06;;;24.92
74750;BMP280;63269;53.330;-6.288;2023-06-24T04:44:55;101669.28;;;24.91
74750;BMP280;63269;53.330;-6.288;2023-06-24T04:47:20;101662.75;;;24.92
74750;BMP280;63269;53.330;-6.288;2023-06-24T04:49:46;101671.97;;;24.91
74750;BMP280;63269;53.330;-6.288;2023-06-24T04:52:12;101684.22;;;24.92
74750;BMP280;63269;53.330;-6.288;2023-06-24T04:54:37;101684.22;;;24.92
74750;BMP280;63269;53.330;-6.288;2023-06-24T04:57:08;101679.28;;;24.90
74750;BMP280;63269;53.330;-6.288;2023-06-24T04:59:36;101691.06;;;24.93
74750;BMP280;63269;53.330;-6.288;2023-06-24T05:02:03;101691.06;;;24.93
74750;BMP280;63269;53.330;-6.288;2023-06-24T05:04:29;101684.66;;;24.90
74750;BMP280;63269;53.330;-6.288;2023-06-24T05:06:54;101689.59;;;24.92
74750;BMP280;63269;53.330;-6.288;2023-06-24T05:09:22;101686.44;;;24.93
74750;BMP280;63269;53.330;-6.288;2023-06-24T05:11:47;101678.84;;;24.92
74750;BMP280;63269;53.330;-6.288;2023-06-24T05:14:12;101682.25;;;24.92
74750;BMP280;63269;53.330;-6.288;2023-06-24T05:16:38;101682.25;;;24.92
74750;BMP280;63269;53.330;-6.288;2023-06-24T05:19:03;101680.78;;;24.91
74750;BMP280;63269;53.330;-6.288;2023-06-24T05:21:29;101680.78;;;24.91
74750;BMP280;63269;53.330;-6.288;2023-06-24T05:23:54;101681.97;;;24.90
74750;BMP280;63269;53.330;-6.288;2023-06-24T05:26:19;101681.22;;;24.90
74750;BMP280;63269;53.330;-6.288;2023-06-24T05:28:45;101685.41;;;24.91
74750;BMP280;63269;53.330;-6.288;2023-06-24T05:31:10;101679.28;;;24.90
74750;BMP280;63269;53.330;-6.288;2023-06-24T05:33:36;101680.78;;;24.91
74750;BMP280;63269;53.330;-6.288;2023-06-24T05:36:01;101677.34;;;24.91
74750;BMP280;63269;53.330;-6.288;2023-06-24T05:38:26;101677.34;;;24.91
74750;BMP280;63269;53.330;-6.288;2023-06-24T05:40:55;101696.13;;;24.91
74750;BMP280;63269;53.330;-6.288;2023-06-24T05:43:20;101680.78;;;24.91
74750;BMP280;63269;53.330;-6.288;2023-06-24T05:45:45;101686.13;;;24.91
74750;BMP280;63269;53.330;-6.288;2023-06-24T05:48:11;101686.13;;;24.91
74750;BMP280;63269;53.330;-6.288;2023-06-24T05:50:36;101682.72;;;24.91
74750;BMP280;63269;53.330;-6.288;2023-06-24T05:53:02;101682.72;;;24.91
74750;BMP280;63269;53.330;-6.288;2023-06-24T05:55:27;101694.63;;;24.90
74750;BMP280;63269;53.330;-6.288;2023-06-24T05:57:52;101673.91;;;24.90
74750;BMP280;63269;53.330;-6.288;2023-06-24T06:00:18;101681.97;;;24.90
74750;BMP280;63269;53.330;-6.288;2023-06-24T06:02:44;101680.03;;;24.91
74750;BMP280;63269;53.330;-6.288;2023-06-24T06:05:09;101680.03;;;24.91
74750;BMP280;63269;53.330;-6.288;2023-06-24T06:07:35;101669.72;;;24.89
74750;BMP280;63269;53.330;-6.288;2023-06-24T06:10:04;101676.59;;;24.90
74750;BMP280;63269;53.330;-6.288;2023-06-24T06:12:30;101676.59;;;24.90
74750;BMP280;63269;53.330;-6.288;2023-06-24T06:14:56;101675.84;;;24.90
74750;BMP280;63269;53.330;-6.288;2023-06-24T06:17:21;101671.97;;;24.91
74750;BMP280;63269;53.330;-6.288;2023-06-24T06:19:46;101670.47;;;24.90
74750;BMP280;63269;53.330;-6.288;2023-06-24T06:22:12;101670.47;;;24.90
74750;BMP280;63269;53.330;-6.288;2023-06-24T06:24:38;101665.88;;;24.90
74750;BMP280;63269;53.330;-6.288;2023-06-24T06:27:04;101681.53;;;24.92
74750;BMP280;63269;53.330;-6.288;2023-06-24T06:29:30;101681.53;;;24.92
74750;BMP280;63269;53.330;-6.288;2023-06-24T06:31:55;101690.03;;;24.90
74750;BMP280;63269;53.330;-6.288;2023-06-24T06:34:22;101690.03;;;24.90
74750;BMP280;63269;53.330;-6.288;2023-06-24T06:36:47;101680.03;;;24.91
74750;BMP280;63269;53.330;-6.288;2023-06-24T06:39:13;101682.72;;;24.91
74750;BMP280;63269;53.330;-6.288;2023-06-24T06:41:38;101680.03;;;24.91
74750;BMP280;63269;53.330;-6.288;2023-06-24T06:44:03;101680.03;;;24.91
74750;BMP280;63269;53.330;-6.288;2023-06-24T06:46:29;101686.91;;;24.92
74750;BMP280;63269;53.330;-6.288;2023-06-24T06:48:54;101684.22;;;24.92
74750;BMP280;63269;53.330;-6.288;2023-06-24T06:51:20;101684.22;;;24.92
74750;BMP280;63269;53.330;-6.288;2023-06-24T06:53:46;101684.22;;;24.92
74750;BMP280;63269;53.330;-6.288;2023-06-24T06:56:23;101679.28;;;24.90
74750;BMP280;63269;53.330;-6.288;2023-06-24T06:58:52;101685.41;;;24.91
74750;BMP280;63269;53.330;-6.288;2023-06-24T07:01:18;101683.88;;;24.90
74750;BMP280;63269;53.330;-6.288;2023-06-24T07:03:44;101687.34;;;24.90
74750;BMP280;63269;53.330;-6.288;2023-06-24T07:06:09;101698.09;;;24.90
74750;BMP280;63269;53.330;-6.288;2023-06-24T07:08:35;101698.09;;;24.90
74750;BMP280;63269;53.330;-6.288;2023-06-24T07:11:01;101688.81;;;24.91
74750;BMP280;63269;53.330;-6.288;2023-06-24T07:13:27;101688.81;;;24.91
74750;BMP280;63269;53.330;-6.288;2023-06-24T07:15:52;101699.56;;;24.91
74750;BMP280;63269;53.330;-6.288;2023-06-24T07:18:18;101699.56;;;24.91
74750;BMP280;63269;53.330;-6.288;2023-06-24T07:20:43;101700.75;;;24.90
74750;BMP280;63269;53.330;-6.288;2023-06-24T07:23:11;101707.63;;;24.91
74750;BMP280;63269;53.330;-6.288;2023-06-24T07:25:37;101705.69;;;24.92
74750;BMP280;63269;53.330;-6.288;2023-06-24T07:28:05;101697.66;;;24.92
74750;BMP280;63269;53.330;-6.288;2023-06-24T07:30:30;101697.66;;;24.92
74750;BMP280;63269;53.330;-6.288;2023-06-24T07:32:56;101706.13;;;24.90
74750;BMP280;63269;53.330;-6.288;2023-06-24T07:35:21;101712.97;;;24.91
74750;BMP280;63269;53.330;-6.288;2023-06-24T07:37:47;101711.78;;;24.92
74750;BMP280;63269;53.330;-6.288;2023-06-24T07:40:12;101711.78;;;24.92
74750;BMP280;63269;53.330;-6.288;2023-06-24T07:42:37;101723.25;;;24.93
74750;BMP280;63269;53.330;-6.288;2023-06-24T07:45:03;101728.63;;;24.93
74750;BMP280;63269;53.330;-6.288;2023-06-24T07:47:29;101729.84;;;24.92
74750;BMP280;63269;53.330;-6.288;2023-06-24T07:49:54;101729.84;;;24.92
74750;BMP280;63269;53.330;-6.288;2023-06-24T07:52:20;101729.84;;;24.92
74750;BMP280;63269;53.330;-6.288;2023-06-24T07:54:45;101737.13;;;24.91
74750;BMP280;63269;53.330;-6.288;2023-06-24T07:57:10;101737.13;;;24.91
74750;BMP280;63269;53.330;-6.288;2023-06-24T07:59:36;101751.75;;;24.90
74750;BMP280;63269;53.330;-6.288;2023-06-24T08:02:01;101751.75;;;24.90
74750;BMP280;63269;53.330;-6.288;2023-06-24T08:04:27;101755.63;;;24.89
74750;BMP280;63269;53.330;-6.288;2023-06-24T08:06:52;101759.81;;;24.90
74750;BMP280;63269;53.330;-6.288;2023-06-24T08:09:18;101759.81;;;24.90
74750;BMP280;63269;53.330;-6.288;2023-06-24T08:11:44;101751.75;;;24.90
74750;BMP280;63269;53.330;-6.288;2023-06-24T08:14:09;101762.50;;;24.90
74750;BMP280;63269;53.330;-6.288;2023-06-24T08:16:35;101759.03;;;24.90
74750;BMP280;63269;53.330;-6.288;2023-06-24T08:19:00;101759.03;;;24.90
74750;BMP280;63269;53.330;-6.288;2023-06-24T08:21:26;101769.03;;;24.89
74750;BMP280;63269;53.330;-6.288;2023-06-24T08:23:51;101765.19;;;24.90
74750;BMP280;63269;53.330;-6.288;2023-06-24T08:26:19;101765.19;;;24.90
74750;BMP280;63269;53.330;-6.288;2023-06-24T08:28:46;101769.03;;;24.89
74750;BMP280;63269;53.330;-6.288;2023-06-24T08:31:12;101762.50;;;24.90
74750;BMP280;63269;53.330;-6.288;2023-06-24T08:33:43;101762.50;;;24.90
74750;BMP280;63269;53.330;-6.288;2023-06-24T08:36:10;101767.88;;;24.90
74750;BMP280;63269;53.330;-6.288;2023-06-24T08:38:35;101767.88;;;24.90
74750;BMP280;63269;53.330;-6.288;2023-06-24T08:41:01;101769.78;;;24.90
74750;BMP280;63269;53.330;-6.288;2023-06-24T08:43:27;101772.03;;;24.91
74750;BMP280;63269;53.330;-6.288;2023-06-24T08:45:53;101773.97;;;24.91
74750;BMP280;63269;53.330;-6.288;2023-06-24T08:48:19;101773.97;;;24.91
74750;BMP280;63269;53.330;-6.288;2023-06-24T08:50:50;101766.66;;;24.91
74750;BMP280;63269;53.330;-6.288;2023-06-24T08:53:19;101771.28;;;24.91
74750;BMP280;63269;53.330;-6.288;2023-06-24T08:55:48;101772.47;;;24.90
74750;BMP280;63269;53.330;-6.288;2023-06-24T08:58:14;101762.50;;;24.90
74750;BMP280;63269;53.330;-6.288;2023-06-24T09:00:40;101765.19;;;24.90
74750;BMP280;63269;53.330;-6.288;2023-06-24T09:03:08;101765.91;;;24.91
74750;BMP280;63269;53.330;-6.288;2023-06-24T09:05:35;101762.06;;;24.92
74750;BMP280;63269;53.330;-6.288;2023-06-24T09:08:01;101757.88;;;24.91
74750;BMP280;63269;53.330;-6.288;2023-06-24T09:10:34;101759.38;;;24.92
74750;BMP280;63269;53.330;-6.288;2023-06-24T09:13:01;101759.81;;;24.90
74750;BMP280;63269;53.330;-6.288;2023-06-24T09:15:33;101753.66;;;24.90
74750;BMP280;63269;53.330;-6.288;2023-06-24T09:17:59;101757.88;;;24.91
74750;BMP280;63269;53.330;-6.288;2023-06-24T09:20:26;101758.63;;;24.91
74750;BMP280;63269;53.330;-6.288;2023-06-24T09:22:57;101760.09;;;24.92
74750;BMP280;63269;53.330;-6.288;2023-06-24T09:25:23;101751.75;;;24.90
74750;BMP280;63269;53.330;-6.288;2023-06-24T09:27:48;101751.75;;;24.90
74750;BMP280;63269;53.330;-6.288;2023-06-24T09:30:22;101748.31;;;24.90
74750;BMP280;63269;53.330;-6.288;2023-06-24T09:32:49;101752.50;;;24.91
74750;BMP280;63269;53.330;-6.288;2023-06-24T09:35:16;101751.63;;;24.94
74750;BMP280;63269;53.330;-6.288;2023-06-24T09:37:43;101744.34;;;24.94
74750;BMP280;63269;53.330;-6.288;2023-06-24T09:40:08;101743.44;;;24.98
74750;BMP280;63269;53.330;-6.288;2023-06-24T09:42:35;101743.88;;;24.96
74750;BMP280;63269;53.330;-6.288;2023-06-24T09:45:05;101757.59;;;24.98
74750;BMP280;63269;53.330;-6.288;2023-06-24T09:47:30;101757.59;;;24.98
74750;BMP280;63269;53.330;-6.288;2023-06-24T09:49:56;101757.59;;;24.98
74750;BMP280;63269;53.330;-6.288;2023-06-24T09:52:22;101757.59;;;24.98
74750;BMP280;63269;53.330;-6.288;2023-06-24T09:54:51;101746.13;;;24.98
74750;BMP280;63269;53.330;-6.288;2023-06-24T09:57:25;101739.88;;;25.01
74750;BMP280;63269;53.330;-6.288;2023-06-24T09:59:52;101754.03;;;25.01
74750;BMP280;63269;53.330;-6.288;2023-06-24T10:02:18;101754.03;;;25.01
74750;BMP280;63269;53.330;-6.288;2023-06-24T10:04:44;101766.72;;;25.01
74750;BMP280;63269;53.330;-6.288;2023-06-24T10:07:12;101766.28;;;25.02
74750;BMP280;63269;53.330;-6.288;2023-06-24T10:09:39;101766.28;;;25.02
74750;BMP280;63269;53.330;-6.288;2023-06-24T10:12:06;101774.34;;;25.02
74750;BMP280;63269;53.330;-6.288;2023-06-24T10:14:31;101762.88;;;25.02
74750;BMP280;63269;53.330;-6.288;2023-06-24T10:17:03;101766.56;;;25.04
74750;BMP280;63269;53.330;-6.288;2023-06-24T10:19:29;101766.56;;;25.04
74750;BMP280;63269;53.330;-6.288;2023-06-24T10:21:58;101752.88;;;25.02
74750;BMP280;63269;53.330;-6.288;2023-06-24T10:24:32;101757.78;;;25.04
74750;BMP280;63269;53.330;-6.288;2023-06-24T10:27:16;101757.78;;;25.04
74750;BMP280;63269;53.330;-6.288;2023-06-24T10:29:47;101760.47;;;25.04
74750;BMP280;63269;53.330;-6.288;2023-06-24T10:32:13;101744.34;;;25.04
74750;BMP280;63269;53.330;-6.288;2023-06-24T10:37:19;101735.13;;;25.05
74750;BMP280;63269;53.330;-6.288;2023-06-24T10:44:58;101735.88;;;25.05
74750;BMP280;63269;53.330;-6.288;2023-06-24T10:47:25;101731.28;;;25.06
74750;BMP280;63269;53.330;-6.288;2023-06-24T10:49:53;101731.28;;;25.06
74750;BMP280;63269;53.330;-6.288;2023-06-24T10:52:20;101724.69;;;25.07
74750;BMP280;63269;53.330;-6.288;2023-06-24T10:54:50;101732.00;;;25.06
74750;BMP280;63269;53.330;-6.288;2023-06-24T10:57:27;101728.13;;;25.07
74750;BMP280;63269;53.330;-6.288;2023-06-24T10:59:56;101732.72;;;25.07
74750;BMP280;63269;53.330;-6.288;2023-06-24T11:02:24;101734.69;;;25.06
74750;BMP280;63269;53.330;-6.288;2023-06-24T11:04:53;101727.34;;;25.07
74750;BMP280;63269;53.330;-6.288;2023-06-24T11:07:20;101732.72;;;25.07
74750;BMP280;63269;53.330;-6.288;2023-06-24T11:09:56;101729.34;;;25.06
74750;BMP280;63269;53.330;-6.288;2023-06-24T11:12:36;101735.13;;;25.05
74750;BMP280;63269;53.330;-6.288;2023-06-24T11:15:03;101735.88;;;25.05
74750;BMP280;63269;53.330;-6.288;2023-06-24T11:17:29;101739.72;;;25.04
74750;BMP280;63269;53.330;-6.288;2023-06-24T11:19:56;101740.50;;;25.05
74750;BMP280;63269;53.330;-6.288;2023-06-24T11:22:23;101740.06;;;25.06
74750;BMP280;63269;53.330;-6.288;2023-06-24T11:24:48;101727.81;;;25.05
74750;BMP280;63269;53.330;-6.288;2023-06-24T11:27:14;101723.22;;;25.06
74750;BMP280;63269;53.330;-6.288;2023-06-24T11:29:39;101715.56;;;25.04
74750;BMP280;63269;53.330;-6.288;2023-06-24T11:32:08;101716.34;;;25.05
74750;BMP280;63269;53.330;-6.288;2023-06-24T11:34:37;101710.19;;;25.04
74750;BMP280;63269;53.330;-6.288;2023-06-24T11:37:14;101718.25;;;25.04
74750;BMP280;63269;53.330;-6.288;2023-06-24T11:39:40;101721.72;;;25.05
74750;BMP280;63269;53.330;-6.288;2023-06-24T11:42:07;101707.50;;;25.04
74750;BMP280;63269;53.330;-6.288;2023-06-24T11:44:36;101700.22;;;25.05
74750;BMP280;63269;53.330;-6.288;2023-06-24T11:47:06;101698.28;;;25.05
74750;BMP280;63269;53.330;-6.288;2023-06-24T11:49:47;101703.66;;;25.05
74750;BMP280;63269;53.330;-6.288;2023-06-24T11:52:13;101692.91;;;25.05
74750;BMP280;63269;53.330;-6.288;2023-06-24T11:54:40;101697.53;;;25.05
74750;BMP280;63269;53.330;-6.288;2023-06-24T11:57:07;101696.03;;;25.04
74750;BMP280;63269;53.330;-6.288;2023-06-24T11:59:32;101704.81;;;25.04
74750;BMP280;63269;53.330;-6.288;2023-06-24T12:01:58;101701.41;;;25.04
74750;BMP280;63269;53.330;-6.288;2023-06-24T12:04:29;101699.47;;;25.04
74750;BMP280;63269;53.330;-6.288;2023-06-24T12:06:55;101704.53;;;25.02
74750;BMP280;63269;53.330;-6.288;2023-06-24T12:09:21;101700.22;;;25.05
74750;BMP280;63269;53.330;-6.288;2023-06-24T12:11:46;101694.44;;;25.06
74750;BMP280;63269;53.330;-6.288;2023-06-24T12:14:12;101698.91;;;25.09
74750;BMP280;63269;53.330;-6.288;2023-06-24T12:16:39;101702.94;;;25.14
74750;BMP280;63269;53.330;-6.288;2023-06-24T12:19:06;101703.53;;;25.18
74750;BMP280;63269;53.330;-6.288;2023-06-24T12:21:31;101705.81;;;25.20
74750;BMP280;63269;53.330;-6.288;2023-06-24T12:23:57;101707.28;;;25.21
74750;BMP280;63269;53.330;-6.288;2023-06-24T12:26:22;101712.22;;;25.22
74750;BMP280;63269;53.330;-6.288;2023-06-24T12:28:48;101715.69;;;25.23
74750;BMP280;63269;53.330;-6.288;2023-06-24T12:31:13;101708.78;;;25.22
74750;BMP280;63269;53.330;-6.288;2023-06-24T12:33:39;101713.00;;;25.23
74750;BMP280;63269;53.330;-6.288;2023-06-24T12:36:04;101711.47;;;25.22
74750;BMP280;63269;53.330;-6.288;2023-06-24T12:38:30;101714.91;;;25.22
74750;BMP280;63269;53.330;-6.288;2023-06-24T12:40:57;101708.38;;;25.23
74750;BMP280;63269;53.330;-6.288;2023-06-24T12:43:22;101706.84;;;25.22
74750;BMP280;63269;53.330;-6.288;2023-06-24T12:45:47;101711.94;;;25.20
74750;BMP280;63269;53.330;-6.288;2023-06-24T12:48:13;101708.78;;;25.22
74750;BMP280;63269;53.330;-6.288;2023-06-24T12:50:39;101696.13;;;25.22
74750;BMP280;63269;53.330;-6.288;2023-06-24T12:53:05;101697.28;;;25.21
74750;BMP280;63269;53.330;-6.288;2023-06-24T12:55:30;101690.31;;;25.24
74750;BMP280;63269;53.330;-6.288;2023-06-24T12:57:56;101688.81;;;25.23
74750;BMP280;63269;53.330;-6.288;2023-06-24T13:00:23;101680.31;;;25.24
74750;BMP280;63269;53.330;-6.288;2023-06-24T13:02:49;101670.78;;;25.23
74750;BMP280;63269;53.330;-6.288;2023-06-24T13:05:16;101661.50;;;25.24
74750;BMP280;63269;53.330;-6.288;2023-06-24T13:07:42;101661.50;;;25.24
74750;BMP280;63269;53.330;-6.288;2023-06-24T13:10:08;101653.75;;;25.26
74750;BMP280;63269;53.330;-6.288;2023-06-24T13:12:35;101651.81;;;25.27
74750;BMP280;63269;53.330;-6.288;2023-06-24T13:15:00;101648.38;;;25.26
74750;BMP280;63269;53.330;-6.288;2023-06-24T13:17:26;101646.44;;;25.27
74750;BMP280;63269;53.330;-6.288;2023-06-24T13:19:52;101645.72;;;25.26
74750;BMP280;63269;53.330;-6.288;2023-06-24T13:22:18;101653.75;;;25.26
74750;BMP280;63269;53.330;-6.288;2023-06-24T13:24:44;101649.13;;;25.27
74750;BMP280;63269;53.330;-6.288;2023-06-24T13:27:10;101651.81;;;25.27
74750;BMP280;63269;53.330;-6.288;2023-06-24T13:29:36;101661.06;;;25.26
74750;BMP280;63269;53.330;-6.288;2023-06-24T13:32:01;101647.66;;;25.26
74750;BMP280;63269;53.330;-6.288;2023-06-24T13:34:27;101650.34;;;25.26
74750;BMP280;63269;53.330;-6.288;2023-06-24T13:36:52;101643.44;;;25.25
74750;BMP280;63269;53.330;-6.288;2023-06-24T13:39:18;101641.50;;;25.25
74750;BMP280;63269;53.330;-6.288;2023-06-24T13:41:44;101632.28;;;25.26
74750;BMP280;63269;53.330;-6.288;2023-06-24T13:44:10;101626.91;;;25.26
74750;BMP280;63269;53.330;-6.288;2023-06-24T13:46:36;101638.81;;;25.25
74750;BMP280;63269;53.330;-6.288;2023-06-24T13:49:02;101630.75;;;25.25
74750;BMP280;63269;53.330;-6.288;2023-06-24T13:51:27;101633.03;;;25.27
74750;BMP280;63269;53.330;-6.288;2023-06-24T13:53:54;101631.81;;;25.28
74750;BMP280;63269;53.330;-6.288;2023-06-24T13:56:21;101618.72;;;25.30
74750;BMP280;63269;53.330;-6.288;2023-06-24T13:58:47;101626.00;;;25.29
74750;BMP280;63269;53.330;-6.288;2023-06-24T14:01:13;101622.59;;;25.29
74750;BMP280;63269;53.330;-6.288;2023-06-24T14:03:38;101626.78;;;25.30